Time;durP1;ratioP1;P1;durP2;ratioP2;P2;SDS_P1;SDS_P2;PMS_P1;PMS_P2;Temp;Humidity;BMP_temperature;BMP_pressure;BME280_temperature;BME280_humidity;BME280_pressure;Samples;Min_cycle;Max_cycle;Signal;HPM_P1;HPM_P2
2022/07/16 00:01:24;;;;;;;;;;;;;;;23.98;31.71;99330.19;4975365;28;20472;-78
2022/07/16 00:03:50;;;;;;;;;;;;;;;23.97;31.43;99328.53;4975652;28;19914;-78
2022/07/16 00:06:15;;;;;;;;;;;;;;;23.98;31.69;99332.91;4975558;28;19914;-81
2022/07/16 00:08:40;;;;;;;;;;;;;;;23.97;31.41;99326.66;4975600;28;19961;-78
2022/07/16 00:11:06;;;;;;;;;;;;;;;23.98;31.76;99330.19;4975481;28;19916;-80
2022/07/16 00:13:31;;;;;;;;;;;;;;;23.95;31.65;99325.31;4975664;28;19914;-78
2022/07/16 00:15:56;;;;;;;;;;;;;;;23.98;31.63;99324.72;4975709;28;20288;-76
2022/07/16 00:21:05;;;;;;;;;;;;;;;23.94;31.50;99326.41;4977027;28;19936;-81
2022/07/16 00:23:31;;;;;;;;;;;;;;;23.94;31.30;99324.53;4979228;28;20357;-78
2022/07/16 00:25:56;;;;;;;;;;;;;;;23.94;31.27;99326.41;4979205;28;19937;-81
2022/07/16 00:28:21;;;;;;;;;;;;;;;23.95;31.56;99323.38;4979235;28;19993;-78
2022/07/16 00:30:47;;;;;;;;;;;;;;;23.95;31.35;99333.50;4979270;28;19914;-80
2022/07/16 00:33:12;;;;;;;;;;;;;;;23.95;31.34;99331.56;4979177;28;20452;-78
2022/07/16 00:35:37;;;;;;;;;;;;;;;23.95;31.04;99323.38;4979075;28;20337;-80
2022/07/16 00:38:04;;;;;;;;;;;;;;;23.94;31.50;99326.41;4978803;28;19918;-78
2022/07/16 00:40:29;;;;;;;;;;;;;;;23.93;31.24;99322.88;4978950;28;19914;-80
2022/07/16 00:42:54;;;;;;;;;;;;;;;23.94;31.08;99321.78;4978964;28;19918;-78
2022/07/16 00:45:20;;;;;;;;;;;;;;;23.93;31.37;99322.88;4978848;28;19969;-78
2022/07/16 00:47:45;;;;;;;;;;;;;;;23.94;31.16;99326.41;4978504;28;19937;-77
2022/07/16 00:50:10;;;;;;;;;;;;;;;23.93;31.02;99325.63;4961765;28;19968;-77
2022/07/16 00:52:36;;;;;;;;;;;;;;;23.94;31.08;99331.88;4978695;28;20377;-78
2022/07/16 00:55:01;;;;;;;;;;;;;;;23.94;31.07;99321.78;4978595;28;19921;-78
2022/07/16 00:57:27;;;;;;;;;;;;;;;23.93;31.12;99320.16;4978804;28;20381;-78
2022/07/16 00:59:52;;;;;;;;;;;;;;;23.92;31.01;99323.19;4978735;28;20041;-78
2022/07/16 01:02:17;;;;;;;;;;;;;;;23.92;30.96;99328.66;4978250;28;19928;-78
2022/07/16 01:04:42;;;;;;;;;;;;;;;23.93;31.22;99327.53;4979132;28;20005;-78
2022/07/16 01:07:08;;;;;;;;;;;;;;;23.93;31.02;99324.81;4978652;28;20323;-80
2022/07/16 01:09:34;;;;;;;;;;;;;;;23.93;31.07;99327.53;4978457;28;19940;-79
2022/07/16 01:11:59;;;;;;;;;;;;;;;23.92;30.75;99328.66;4961021;28;20304;-79
2022/07/16 01:14:25;;;;;;;;;;;;;;;23.92;30.60;99323.19;4978370;28;20341;-78
2022/07/16 01:16:50;;;;;;;;;;;;;;;23.91;30.62;99316.94;4960979;28;19937;-79
2022/07/16 01:19:15;;;;;;;;;;;;;;;23.92;30.82;99317.72;4978072;28;19918;-77
2022/07/16 01:21:42;;;;;;;;;;;;;;;23.92;31.04;99315.84;4977963;28;20272;-80
2022/07/16 01:24:08;;;;;;;;;;;;;;;23.90;30.93;99312.56;4977927;28;20001;-78
2022/07/16 01:26:33;;;;;;;;;;;;;;;23.91;30.87;99316.13;4978019;28;19960;-81
2022/07/16 01:28:58;;;;;;;;;;;;;;;23.91;30.69;99310.69;4977918;28;19914;-78
2022/07/16 01:31:23;;;;;;;;;;;;;;;23.91;30.69;99307.94;4978014;28;19913;-81
2022/07/16 01:34:24;;;;;;;;;;;;;;;23.91;30.30;99300.56;4976908;28;19926;-78
2022/07/16 01:36:34;;;;;;;;;;;;;;;23.91;30.54;99305.22;4977606;28;19921;-78
2022/07/16 01:38:59;;;;;;;;;;;;;;;23.90;30.51;99306.31;4977750;28;20349;-80
2022/07/16 01:41:24;;;;;;;;;;;;;;;23.90;30.46;99300.84;4977680;28;19921;-78
2022/07/16 01:43:50;;;;;;;;;;;;;;;23.89;30.39;99307.44;4978086;28;20393;-81
2022/07/16 01:46:15;;;;;;;;;;;;;;;23.91;30.30;99299.75;4977372;28;19933;-78
2022/07/16 01:48:40;;;;;;;;;;;;;;;23.90;30.47;99309.84;4977403;28;19914;-80
2022/07/16 01:51:05;;;;;;;;;;;;;;;23.90;30.52;99307.13;4977757;28;19910;-78
2022/07/16 01:53:31;;;;;;;;;;;;;;;23.90;30.34;99309.84;4977556;28;20353;-81
2022/07/16 01:55:56;;;;;;;;;;;;;;;23.91;30.41;99303.28;4977598;28;19993;-78
2022/07/16 01:58:21;;;;;;;;;;;;;;;23.91;30.65;99305.22;4977125;28;19914;-81
2022/07/16 02:00:47;;;;;;;;;;;;;;;23.89;30.25;99297.34;4977655;28;19921;-78
2022/07/16 02:03:12;;;;;;;;;;;;;;;23.90;30.52;99303.59;4977879;28;20365;-81
2022/07/16 02:05:37;;;;;;;;;;;;;;;23.89;30.33;99297.34;4977236;28;19945;-77
2022/07/16 02:08:03;;;;;;;;;;;;;;;23.88;30.21;99298.44;4976981;28;19914;-80
2022/07/16 02:10:28;;;;;;;;;;;;;;;23.89;30.33;99293.81;4977972;28;19914;-78
2022/07/16 02:12:54;;;;;;;;;;;;;;;23.89;30.46;99296.53;4977289;28;19921;-79
2022/07/16 02:15:19;;;;;;;;;;;;;;;23.89;30.43;99302.78;4976804;28;19918;-77
2022/07/16 02:17:44;;;;;;;;;;;;;;;23.90;30.96;99295.41;4976902;28;19960;-79
2022/07/16 02:20:12;;;;;;;;;;;;;;;23.89;30.48;99299.25;4977191;28;19964;-79
2022/07/16 02:22:38;;;;;;;;;;;;;;;23.89;30.39;99291.88;4960095;28;20005;-78
2022/07/16 02:25:03;;;;;;;;;;;;;;;23.88;30.38;99297.63;4977099;28;20436;-80
2022/07/16 02:27:28;;;;;;;;;;;;;;;23.88;30.04;99300.34;4977561;28;20000;-78
2022/07/16 02:29:54;;;;;;;;;;;;;;;23.89;30.38;99297.34;4977028;28;19914;-77
2022/07/16 02:32:19;;;;;;;;;;;;;;;23.87;30.38;99298.72;4976580;28;20368;-78
2022/07/16 02:34:45;;;;;;;;;;;;;;;23.89;30.39;99296.53;4976870;28;19914;-78
2022/07/16 02:37:10;;;;;;;;;;;;;;;23.89;30.44;99296.53;4976888;28;19929;-80
2022/07/16 02:39:35;;;;;;;;;;;;;;;23.89;30.57;99296.53;4976958;28;20400;-79
2022/07/16 02:42:00;;;;;;;;;;;;;;;23.87;30.51;99304.19;4976526;28;19926;-80
2022/07/16 02:44:26;;;;;;;;;;;;;;;23.87;30.01;99302.28;4976346;28;20364;-77
2022/07/16 02:46:51;;;;;;;;;;;;;;;23.88;30.30;99300.34;4976512;28;20004;-80
2022/07/16 02:49:16;;;;;;;;;;;;;;;23.87;30.30;99301.47;4976710;28;20328;-76
2022/07/16 02:51:41;;;;;;;;;;;;;;;23.89;30.18;99302.00;4976754;28;19986;-81
2022/07/16 02:54:07;;;;;;;;;;;;;;;23.89;30.17;99302.00;4976196;28;19913;-78
2022/07/16 02:56:32;;;;;;;;;;;;;;;23.88;30.04;99300.34;4976580;28;19914;-79
2022/07/16 02:58:57;;;;;;;;;;;;;;;23.88;30.16;99305.81;4976111;28;19921;-78
2022/07/16 03:01:23;;;;;;;;;;;;;;;23.88;30.37;99297.63;4976244;28;19914;-79
2022/07/16 03:03:48;;;;;;;;;;;;;;;23.88;30.38;99303.88;4976303;28;20357;-79
2022/07/16 03:06:14;;;;;;;;;;;;;;;23.88;30.35;99300.34;4976401;28;19909;-80
2022/07/16 03:08:39;;;;;;;;;;;;;;;23.88;30.46;99298.44;4976109;28;20024;-77
2022/07/16 03:11:04;;;;;;;;;;;;;;;23.90;30.59;99300.84;4976045;28;20397;-78
2022/07/16 03:13:29;;;;;;;;;;;;;;;23.90;30.65;99303.59;4976188;28;19918;-80
2022/07/16 03:15:55;;;;;;;;;;;;;;;23.89;30.88;99302.00;4958996;28;19910;-78
2022/07/16 03:18:21;;;;;;;;;;;;;;;23.88;30.98;99301.16;4975990;28;20361;-79
2022/07/16 03:20:46;;;;;;;;;;;;;;;23.88;30.98;99300.34;4975634;28;20345;-77
2022/07/16 03:23:12;;;;;;;;;;;;;;;23.88;30.80;99300.34;4975711;28;19914;-78
2022/07/16 03:25:37;;;;;;;;;;;;;;;23.89;30.93;99299.25;4975629;28;19914;-78
2022/07/16 03:28:02;;;;;;;;;;;;;;;23.90;31.32;99298.13;4975862;28;19914;-79
2022/07/16 03:30:27;;;;;;;;;;;;;;;23.88;31.21;99298.44;4975576;28;19947;-79
2022/07/16 03:32:53;;;;;;;;;;;;;;;23.88;31.16;99298.44;4975733;28;19914;-78
2022/07/16 03:35:18;;;;;;;;;;;;;;;23.90;31.40;99296.19;4958955;28;19914;-79
2022/07/16 03:40:34;;;;;;;;;;;;;;;23.88;31.43;99297.63;4974470;28;19914;-75
2022/07/16 03:43:00;;;;;;;;;;;;;;;23.88;31.44;99286.72;4975385;28;19922;-79
2022/07/16 03:45:25;;;;;;;;;;;;;;;23.89;31.65;99296.53;4975563;28;19940;-77
2022/07/16 03:47:50;;;;;;;;;;;;;;;23.89;31.72;99299.25;4975654;28;20261;-78
2022/07/16 03:50:16;;;;;;;;;;;;;;;23.88;31.99;99295.69;4975353;28;19918;-78
2022/07/16 03:52:41;;;;;;;;;;;;;;;23.90;31.66;99303.59;4975252;28;19949;-77
2022/07/16 03:55:06;;;;;;;;;;;;;;;23.88;32.01;99294.91;4976822;28;19914;-78
2022/07/16 03:57:31;;;;;;;;;;;;;;;23.88;31.93;99300.34;4982160;28;19936;-78
2022/07/16 03:59:57;;;;;;;;;;;;;;;23.88;32.01;99306.63;4981868;28;19914;-80
2022/07/16 04:02:22;;;;;;;;;;;;;;;23.88;32.12;99294.91;4965251;28;19918;-77
2022/07/16 04:04:47;;;;;;;;;;;;;;;23.90;32.06;99298.94;4981864;28;19918;-80
2022/07/16 04:07:13;;;;;;;;;;;;;;;23.89;32.07;99302.78;4982063;28;19914;-77
2022/07/16 04:09:38;;;;;;;;;;;;;;;23.90;32.33;99301.66;4982459;28;20372;-78
2022/07/16 04:12:04;;;;;;;;;;;;;;;23.91;32.33;99294.31;4982260;28;20020;-76
2022/07/16 04:14:29;;;;;;;;;;;;;;;23.90;32.47;99304.38;4982274;28;20358;-79
2022/07/16 04:16:54;;;;;;;;;;;;;;;23.90;32.32;99301.66;4981812;28;20409;-78
2022/07/16 04:19:20;;;;;;;;;;;;;;;23.88;32.70;99306.63;4982054;28;20009;-80
2022/07/16 04:21:45;;;;;;;;;;;;;;;23.90;32.42;99309.03;4982356;28;19961;-77
2022/07/16 04:24:10;;;;;;;;;;;;;;;23.89;32.74;99312.91;4981979;28;20324;-78
2022/07/16 04:26:35;;;;;;;;;;;;;;;23.89;32.69;99312.91;4982118;28;19925;-77
2022/07/16 04:29:01;;;;;;;;;;;;;;;23.88;32.77;99314.00;4982179;28;19918;-78
2022/07/16 04:31:26;;;;;;;;;;;;;;;23.88;32.80;99306.63;4982172;28;20269;-78
2022/07/16 04:33:51;;;;;;;;;;;;;;;23.88;33.02;99311.28;4981995;28;19914;-78
2022/07/16 04:36:16;;;;;;;;;;;;;;;23.88;32.87;99311.28;4981891;28;19914;-78
2022/07/16 04:38:42;;;;;;;;;;;;;;;23.89;32.95;99315.63;4981746;28;20356;-78
2022/07/16 04:41:07;;;;;;;;;;;;;;;23.88;33.00;99312.06;4981649;28;19920;-77
2022/07/16 04:43:32;;;;;;;;;;;;;;;23.88;33.10;99322.19;4981405;28;20260;-78
2022/07/16 04:45:57;;;;;;;;;;;;;;;23.88;33.34;99322.19;4981809;28;20372;-80
2022/07/16 04:48:23;;;;;;;;;;;;;;;23.90;32.93;99319.97;4981455;28;19924;-78
2022/07/16 04:50:48;;;;;;;;;;;;;;;23.89;33.09;99330.06;4981214;28;19973;-81
2022/07/16 04:53:13;;;;;;;;;;;;;;;23.89;33.13;99330.06;4981474;28;19942;-78
2022/07/16 04:55:39;;;;;;;;;;;;;;;23.89;33.04;99332.81;4981332;28;20404;-81
2022/07/16 04:58:04;;;;;;;;;;;;;;;23.89;33.11;99334.72;4981714;28;19920;-78
2022/07/16 05:00:29;;;;;;;;;;;;;;;23.90;33.30;99328.16;4964325;28;20331;-80
2022/07/16 05:02:57;;;;;;;;;;;;;;;23.89;33.08;99338.25;4981750;28;20321;-76
2022/07/16 05:05:26;;;;;;;;;;;;;;;23.88;33.16;99338.56;4980969;28;19918;-79
2022/07/16 05:07:51;;;;;;;;;;;;;;;23.89;33.22;99337.47;4979189;28;19921;-78
2022/07/16 05:10:16;;;;;;;;;;;;;;;23.88;33.25;99344.81;4978243;28;19914;-78
2022/07/16 05:12:42;;;;;;;;;;;;;;;23.89;33.25;99340.19;4960893;28;19914;-77
2022/07/16 05:15:07;;;;;;;;;;;;;;;23.90;33.28;99341.78;4978296;28;20281;-79
2022/07/16 05:17:32;;;;;;;;;;;;;;;23.87;33.26;99343.22;4978742;28;20344;-78
2022/07/16 05:19:58;;;;;;;;;;;;;;;23.89;33.16;99345.66;4978317;28;20061;-80
2022/07/16 05:22:23;;;;;;;;;;;;;;;23.88;33.40;99339.34;4978140;28;19914;-78
2022/07/16 05:24:48;;;;;;;;;;;;;;;23.89;33.27;99343.72;4978292;28;19921;-78
2022/07/16 05:27:13;;;;;;;;;;;;;;;23.89;33.29;99349.16;4978299;28;20326;-78
2022/07/16 05:29:39;;;;;;;;;;;;;;;23.89;33.30;99346.44;4977847;28;19914;-78
2022/07/16 05:32:04;;;;;;;;;;;;;;;23.88;33.10;99349.47;4978144;28;19914;-78
2022/07/16 05:34:30;;;;;;;;;;;;;;;23.88;33.35;99352.19;4978757;28;19925;-78
2022/07/16 05:36:55;;;;;;;;;;;;;;;23.88;33.48;99354.94;4977590;28;19920;-77
2022/07/16 05:39:20;;;;;;;;;;;;;;;23.87;33.28;99345.94;4978231;28;19914;-78
2022/07/16 05:41:45;;;;;;;;;;;;;;;23.88;33.50;99347.53;4977626;28;20021;-77
2022/07/16 05:44:11;;;;;;;;;;;;;;;23.87;33.15;99348.66;4960397;28;19914;-77
2022/07/16 05:46:36;;;;;;;;;;;;;;;23.87;33.36;99348.66;4978284;28;19914;-81
2022/07/16 05:49:01;;;;;;;;;;;;;;;23.88;33.49;99344.81;4977834;28;20387;-78
2022/07/16 05:51:26;;;;;;;;;;;;;;;23.89;33.16;99345.66;4978054;28;19918;-79
2022/07/16 05:53:52;;;;;;;;;;;;;;;23.87;33.12;99342.38;4977921;28;20341;-78
2022/07/16 05:56:17;;;;;;;;;;;;;;;23.87;33.28;99345.94;4977827;28;19967;-82
2022/07/16 05:58:42;;;;;;;;;;;;;;;23.89;33.36;99340.19;4977595;28;19914;-78
2022/07/16 06:01:07;;;;;;;;;;;;;;;23.88;33.40;99344.81;4977229;28;19914;-79
2022/07/16 06:03:33;;;;;;;;;;;;;;;23.87;33.45;99343.22;4977728;28;19914;-77
2022/07/16 06:05:58;;;;;;;;;;;;;;;23.88;33.34;99346.75;4977546;28;20368;-78
2022/07/16 06:08:23;;;;;;;;;;;;;;;23.88;33.55;99349.47;4977736;28;19914;-80
2022/07/16 06:10:48;;;;;;;;;;;;;;;23.88;33.22;99352.19;4977433;28;19917;-78
2022/07/16 06:13:14;;;;;;;;;;;;;;;23.89;33.33;99356.56;4977843;28;20293;-80
2022/07/16 06:15:39;;;;;;;;;;;;;;;23.88;33.54;99349.47;4977424;28;19910;-78
2022/07/16 06:18:04;;;;;;;;;;;;;;;23.89;33.41;99359.28;4977335;28;19914;-80
2022/07/16 06:20:29;;;;;;;;;;;;;;;23.88;33.55;99360.38;4959794;28;20365;-78
2022/07/16 06:22:56;;;;;;;;;;;;;;;23.89;33.44;99362.81;4977179;28;20361;-78
2022/07/16 06:25:22;;;;;;;;;;;;;;;23.89;33.40;99367.47;4977406;28;20280;-79
2022/07/16 06:27:47;;;;;;;;;;;;;;;23.88;33.50;99365.84;4977243;28;19914;-78
2022/07/16 06:30:13;;;;;;;;;;;;;;;23.87;33.55;99370.50;4977404;28;20001;-78
2022/07/16 06:32:39;;;;;;;;;;;;;;;23.87;33.71;99364.22;4977124;28;19914;-78
2022/07/16 06:35:05;;;;;;;;;;;;;;;23.86;33.57;99365.34;4977486;28;19913;-81
2022/07/16 06:37:30;;;;;;;;;;;;;;;23.87;33.64;99362.31;4977219;28;20296;-78
2022/07/16 06:39:56;;;;;;;;;;;;;;;23.87;33.55;99372.41;4976979;28;19965;-79
2022/07/16 06:42:21;;;;;;;;;;;;;;;23.87;33.76;99369.66;4976656;28;19918;-78
2022/07/16 06:44:46;;;;;;;;;;;;;;;23.87;33.70;99364.22;4976699;28;19962;-80
2022/07/16 06:47:11;;;;;;;;;;;;;;;23.87;33.79;99366.94;4976888;28;19921;-79
2022/07/16 06:49:37;;;;;;;;;;;;;;;23.87;33.84;99369.66;4976967;28;19914;-79
2022/07/16 06:52:02;;;;;;;;;;;;;;;23.87;33.92;99366.94;4976868;28;19921;-81
2022/07/16 06:54:27;;;;;;;;;;;;;;;23.88;33.96;99360.38;4976655;28;20004;-78
2022/07/16 06:56:52;;;;;;;;;;;;;;;23.87;33.75;99365.03;4976805;28;19957;-80
2022/07/16 06:59:18;;;;;;;;;;;;;;;23.87;33.84;99365.03;4976643;28;20353;-76
2022/07/16 07:01:43;;;;;;;;;;;;;;;23.87;33.96;99364.22;4976816;28;19976;-81
2022/07/16 07:04:08;;;;;;;;;;;;;;;23.87;33.79;99365.03;4976445;28;20357;-78
2022/07/16 07:06:33;;;;;;;;;;;;;;;23.87;33.73;99369.66;4959389;28;20014;-80
2022/07/16 07:08:59;;;;;;;;;;;;;;;23.86;33.91;99368.88;4976575;28;19988;-78
2022/07/16 07:11:24;;;;;;;;;;;;;;;23.88;34.06;99363.91;4976532;28;19920;-78
2022/07/16 07:13:49;;;;;;;;;;;;;;;23.87;33.94;99365.03;4976335;28;19925;-78
2022/07/16 07:16:15;;;;;;;;;;;;;;;23.87;33.82;99372.41;4976225;28;19914;-81
2022/07/16 07:18:40;;;;;;;;;;;;;;;23.87;33.91;99369.66;4976257;28;19917;-78
2022/07/16 07:21:05;;;;;;;;;;;;;;;23.87;33.89;99362.31;4976439;28;20013;-78
2022/07/16 07:23:30;;;;;;;;;;;;;;;23.87;34.07;99375.94;4976285;28;20349;-79
2022/07/16 07:25:56;;;;;;;;;;;;;;;23.87;33.94;99367.78;4976133;28;20035;-78
2022/07/16 07:28:21;;;;;;;;;;;;;;;23.87;34.05;99375.94;4975877;28;19914;-78
2022/07/16 07:30:46;;;;;;;;;;;;;;;23.87;34.37;99375.94;4975605;28;19914;-79
2022/07/16 07:33:12;;;;;;;;;;;;;;;23.87;34.20;99380.56;4976009;28;19914;-82
2022/07/16 07:35:37;;;;;;;;;;;;;;;23.87;34.10;99377.84;4975807;28;20341;-78
2022/07/16 07:38:03;;;;;;;;;;;;;;;23.88;34.11;99376.75;4976159;28;19969;-79
2022/07/16 07:40:28;;;;;;;;;;;;;;;23.87;34.08;99375.94;4975843;28;20279;-77
2022/07/16 07:42:54;;;;;;;;;;;;;;;23.88;34.29;99387.66;4975648;28;19918;-79
2022/07/16 07:45:19;;;;;;;;;;;;;;;23.87;33.98;99386.88;4975672;28;19921;-78
2022/07/16 07:47:45;;;;;;;;;;;;;;;23.87;34.19;99383.31;4958530;28;19914;-78
2022/07/16 07:50:10;;;;;;;;;;;;;;;23.88;34.11;99387.66;4975669;28;19953;-80
2022/07/16 07:52:35;;;;;;;;;;;;;;;23.86;34.06;99385.22;4975990;28;19914;-77
2022/07/16 07:55:01;;;;;;;;;;;;;;;23.87;34.14;99377.84;4975986;28;20323;-79
2022/07/16 07:57:26;;;;;;;;;;;;;;;23.86;33.94;99382.50;4976331;28;19970;-79
2022/07/16 07:59:51;;;;;;;;;;;;;;;23.87;34.20;99386.03;4975930;28;20369;-78
2022/07/16 08:02:16;;;;;;;;;;;;;;;23.86;34.28;99387.16;4976067;28;20324;-78
2022/07/16 08:04:42;;;;;;;;;;;;;;;23.87;34.23;99391.50;4975802;28;19921;-78
2022/07/16 08:07:07;;;;;;;;;;;;;;;23.87;34.01;99395.06;4975641;28;20021;-82
2022/07/16 08:09:32;;;;;;;;;;;;;;;23.86;34.00;99393.41;4975953;28;19968;-78
2022/07/16 08:11:57;;;;;;;;;;;;;;;23.86;34.01;99392.63;4975523;28;19965;-80
2022/07/16 08:14:23;;;;;;;;;;;;;;;23.86;33.97;99396.16;4976030;28;19961;-78
2022/07/16 08:16:48;;;;;;;;;;;;;;;23.86;33.85;99400.81;4975924;28;19921;-78
2022/07/16 08:19:13;;;;;;;;;;;;;;;23.87;33.83;99402.41;4975602;28;19913;-77
2022/07/16 08:21:38;;;;;;;;;;;;;;;23.87;33.89;99402.41;4975625;28;19914;-78
2022/07/16 08:26:48;;;;;;;;;;;;;;;23.87;34.01;99402.41;4961135;28;19975;-79
2022/07/16 08:29:13;;;;;;;;;;;;;;;23.88;33.95;99406.75;4975741;28;19922;-78
2022/07/16 08:31:38;;;;;;;;;;;;;;;23.87;33.94;99408.69;4975287;28;19914;-81
2022/07/16 08:34:04;;;;;;;;;;;;;;;23.86;33.87;99403.53;4975330;28;19960;-78
2022/07/16 08:36:29;;;;;;;;;;;;;;;23.87;33.99;99410.59;4975248;28;19938;-81
2022/07/16 08:38:54;;;;;;;;;;;;;;;23.87;33.94;99416.03;4975296;28;19921;-76
2022/07/16 08:41:20;;;;;;;;;;;;;;;23.87;33.82;99413.31;4975960;28;20005;-81
2022/07/16 08:43:45;;;;;;;;;;;;;;;23.88;33.90;99412.22;4978836;28;20008;-78
2022/07/16 08:46:10;;;;;;;;;;;;;;;23.88;33.77;99420.41;4979143;28;19914;-80
2022/07/16 08:48:35;;;;;;;;;;;;;;;23.88;34.10;99431.31;4961693;28;19918;-77
2022/07/16 08:51:01;;;;;;;;;;;;;;;23.88;34.12;99420.41;4962097;28;20005;-79
2022/07/16 08:53:26;;;;;;;;;;;;;;;23.88;34.27;99417.69;4961508;28;19918;-78
2022/07/16 08:55:52;;;;;;;;;;;;;;;23.89;34.32;99419.31;4961825;28;19920;-78
2022/07/16 08:58:17;;;;;;;;;;;;;;;23.89;34.25;99422.03;4979102;28;19921;-76
2022/07/16 09:00:43;;;;;;;;;;;;;;;23.87;34.25;99421.50;4979125;28;19914;-78
2022/07/16 09:03:10;;;;;;;;;;;;;;;23.88;34.15;99423.94;4979255;28;19922;-78
2022/07/16 09:05:39;;;;;;;;;;;;;;;23.88;34.43;99420.41;4961457;28;19921;-77
2022/07/16 09:08:04;;;;;;;;;;;;;;;23.88;34.16;99421.22;4961716;28;20365;-82
2022/07/16 09:10:35;;;;;;;;;;;;;;;23.88;34.13;99425.88;4978247;28;19925;-78
2022/07/16 09:13:01;;;;;;;;;;;;;;;23.86;34.26;99420.69;4979050;28;19918;-80
2022/07/16 09:15:29;;;;;;;;;;;;;;;23.87;34.20;99416.03;4978522;28;20353;-78
2022/07/16 09:18:13;;;;;;;;;;;;;;;23.88;34.19;99417.69;4978762;28;19914;-78
2022/07/16 09:20:43;;;;;;;;;;;;;;;23.86;33.98;99417.97;4978583;28;19914;-80
2022/07/16 09:23:31;;;;;;;;;;;;;;;23.87;34.08;99430.53;4978229;28;19921;-76
2022/07/16 09:25:57;;;;;;;;;;;;;;;23.87;34.07;99422.34;4970208;28;19914;-77
2022/07/16 09:28:23;;;;;;;;;;;;;;;23.85;34.09;99418.28;4978578;28;19914;-78
2022/07/16 09:30:48;;;;;;;;;;;;;;;23.86;34.07;99425.34;4978417;28;20278;-77
2022/07/16 09:33:18;;;;;;;;;;;;;;;23.86;34.27;99434.34;4978247;28;20284;-77
2022/07/16 09:35:43;;;;;;;;;;;;;;;23.81;34.04;99428.97;4977864;28;19921;-80
2022/07/16 09:38:09;;;;;;;;;;;;;;;23.81;34.16;99432.50;4977965;28;19914;-76
2022/07/16 09:40:42;;;;;;;;;;;;;;;23.83;34.21;99436.88;4977933;28;19914;-80
2022/07/16 09:43:13;;;;;;;;;;;;;;;23.80;34.08;99435.50;4960432;28;19917;-78
2022/07/16 09:45:59;;;;;;;;;;;;;;;23.80;34.33;99433.59;4978077;28;19914;-78
2022/07/16 09:48:25;;;;;;;;;;;;;;;23.81;34.16;99432.50;4977104;28;19953;-79
2022/07/16 09:50:51;;;;;;;;;;;;;;;23.83;34.01;99434.13;4977625;28;19954;-78
2022/07/16 09:53:17;;;;;;;;;;;;;;;23.81;34.21;99424.31;4976888;28;19914;-78
2022/07/16 09:55:55;;;;;;;;;;;;;;;23.83;34.13;99434.13;4977510;28;19914;-78
2022/07/16 09:58:20;;;;;;;;;;;;;;;23.81;34.05;99432.50;4977803;28;20096;-77
2022/07/16 10:00:45;;;;;;;;;;;;;;;23.80;34.15;99439.06;4977759;28;20376;-79
2022/07/16 10:03:10;;;;;;;;;;;;;;;23.81;34.12;99435.22;4978056;28;19972;-76
2022/07/16 10:05:36;;;;;;;;;;;;;;;23.83;34.17;99434.94;4977590;28;19914;-79
2022/07/16 10:08:01;;;;;;;;;;;;;;;23.84;33.94;99433.03;4977414;28;19914;-78
2022/07/16 10:10:26;;;;;;;;;;;;;;;23.86;34.06;99436.28;4977447;28;19925;-80
2022/07/16 10:12:52;;;;;;;;;;;;;;;23.83;34.23;99447.78;4977315;28;19925;-78
2022/07/16 10:15:17;;;;;;;;;;;;;;;23.84;34.18;99444.75;4959977;28;20353;-80
2022/07/16 10:17:42;;;;;;;;;;;;;;;23.84;34.19;99447.47;4977108;28;19949;-77
2022/07/16 10:20:08;;;;;;;;;;;;;;;23.87;34.16;99451.53;4977022;28;19918;-81
2022/07/16 10:22:34;;;;;;;;;;;;;;;23.88;34.14;99458.59;4977302;28;19914;-76
2022/07/16 10:25:00;;;;;;;;;;;;;;;23.87;34.21;99456.97;4977130;28;20284;-78
2022/07/16 10:27:25;;;;;;;;;;;;;;;23.86;34.31;99456.19;4977049;28;19921;-77
2022/07/16 10:30:07;;;;;;;;;;;;;;;23.88;34.16;99464.06;4977130;28;19936;-79
2022/07/16 10:32:51;;;;;;;;;;;;;;;23.85;34.20;99459.19;4977323;28;19992;-79
2022/07/16 10:35:29;;;;;;;;;;;;;;;23.85;34.42;99457.28;4959869;28;19918;-76
2022/07/16 10:38:09;;;;;;;;;;;;;;;23.83;34.15;99461.41;4959747;28;19914;-78
2022/07/16 10:40:36;;;;;;;;;;;;;;;23.85;34.29;99467.38;4976848;28;19918;-81
2022/07/16 10:43:19;;;;;;;;;;;;;;;23.83;34.42;99467.69;4976455;28;19921;-78
2022/07/16 10:45:54;;;;;;;;;;;;;;;23.84;34.39;99461.13;4976658;28;19964;-78
2022/07/16 10:48:22;;;;;;;;;;;;;;;23.84;34.49;99460.31;4976998;28;19932;-78
2022/07/16 10:51:05;;;;;;;;;;;;;;;23.85;34.43;99470.09;4976581;28;19918;-78
2022/07/16 10:53:51;;;;;;;;;;;;;;;23.83;34.26;99461.41;4976540;28;19918;-77
2022/07/16 10:56:34;;;;;;;;;;;;;;;23.87;34.44;99467.88;4976226;28;19914;-77
2022/07/16 10:59:01;;;;;;;;;;;;;;;23.86;34.23;99472.53;4976316;28;19914;-78
2022/07/16 11:01:26;;;;;;;;;;;;;;;23.83;34.24;99464.94;4976059;28;19960;-83
2022/07/16 11:03:52;;;;;;;;;;;;;;;23.83;34.16;99477.78;4959375;28;19921;-78
2022/07/16 11:06:20;;;;;;;;;;;;;;;23.87;34.05;99474.19;4976239;28;20321;-81
2022/07/16 11:08:46;;;;;;;;;;;;;;;23.89;34.27;99476.59;4976536;28;19936;-78
2022/07/16 11:11:11;;;;;;;;;;;;;;;23.85;34.14;99481.03;4976356;28;19966;-81
2022/07/16 11:13:36;;;;;;;;;;;;;;;23.85;34.14;99481.81;4976317;28;20353;-78
2022/07/16 11:16:08;;;;;;;;;;;;;;;23.88;34.19;99485.88;4976132;28;19910;-80
2022/07/16 11:18:37;;;;;;;;;;;;;;;23.86;34.16;99482.66;4976237;28;19949;-77
2022/07/16 11:21:05;;;;;;;;;;;;;;;23.87;34.14;99482.38;4976063;28;19952;-79
2022/07/16 11:23:31;;;;;;;;;;;;;;;23.87;34.28;99490.53;4976027;28;19918;-80
2022/07/16 11:25:57;;;;;;;;;;;;;;;23.87;34.10;99496.00;4958830;28;20008;-78
2022/07/16 11:28:22;;;;;;;;;;;;;;;23.87;34.18;99500.63;4975975;28;19914;-81
2022/07/16 11:31:03;;;;;;;;;;;;;;;23.89;34.15;99503.91;4976025;28;19951;-78
2022/07/16 11:33:35;;;;;;;;;;;;;;;23.87;34.35;99512.38;4975654;28;20357;-78
2022/07/16 11:36:05;;;;;;;;;;;;;;;23.86;34.31;99509.94;4976041;28;20285;-78
2022/07/16 11:38:31;;;;;;;;;;;;;;;23.85;34.62;99513.75;4975599;28;19926;-77
2022/07/16 11:40:56;;;;;;;;;;;;;;;23.87;34.68;99512.38;4975434;28;19990;-79
2022/07/16 11:43:27;;;;;;;;;;;;;;;23.83;34.77;99508.59;4975500;28;19918;-77
2022/07/16 11:45:53;;;;;;;;;;;;;;;23.80;34.83;99512.72;4976062;28;19969;-78
2022/07/16 11:48:19;;;;;;;;;;;;;;;23.84;34.95;99506.72;4975448;28;19914;-78
2022/07/16 11:50:45;;;;;;;;;;;;;;;23.80;35.02;99503.69;4975859;28;20000;-78
2022/07/16 11:53:11;;;;;;;;;;;;;;;23.87;35.08;99506.91;4975748;28;20357;-81
2022/07/16 11:55:43;;;;;;;;;;;;;;;23.85;34.90;99502.84;4975335;28;19921;-76
2022/07/16 11:58:09;;;;;;;;;;;;;;;23.86;34.76;99501.75;4975549;28;19976;-78
2022/07/16 12:00:41;;;;;;;;;;;;;;;23.89;34.99;99504.69;4975485;28;19969;-81
2022/07/16 12:03:09;;;;;;;;;;;;;;;23.87;34.83;99506.91;4976303;28;19920;-78
2022/07/16 12:05:34;;;;;;;;;;;;;;;23.86;34.86;99505.28;4975689;28;19922;-77
2022/07/16 12:07:59;;;;;;;;;;;;;;;23.77;35.21;99501.59;4975434;28;19940;-78
2022/07/16 12:10:27;;;;;;;;;;;;;;;23.86;34.90;99505.28;4975198;28;19914;-78
2022/07/16 12:13:03;;;;;;;;;;;;;;;23.83;34.86;99500.41;4976283;28;19921;-80
2022/07/16 12:15:28;;;;;;;;;;;;;;;23.86;34.83;99504.47;4975505;28;19937;-77
2022/07/16 12:17:53;;;;;;;;;;;;;;;23.85;34.75;99511.03;4978488;28;20345;-77
2022/07/16 12:20:21;;;;;;;;;;;;;;;23.83;34.94;99511.31;4979212;28;19983;-77
2022/07/16 12:22:48;;;;;;;;;;;;;;;23.86;34.79;99512.66;4979561;28;19914;-78
2022/07/16 12:25:28;;;;;;;;;;;;;;;23.85;34.90;99524.69;4979465;28;20287;-81
2022/07/16 12:27:54;;;;;;;;;;;;;;;23.89;34.90;99509.34;4979129;28;20000;-78
2022/07/16 12:30:29;;;;;;;;;;;;;;;23.83;35.07;99516.00;4979164;28;19914;-78
2022/07/16 12:32:54;;;;;;;;;;;;;;;23.88;35.08;99526.81;4978915;28;20365;-78
2022/07/16 12:35:39;;;;;;;;;;;;;;;23.90;34.78;99527.31;4979052;28;20065;-78
2022/07/16 12:38:04;;;;;;;;;;;;;;;23.87;35.05;99536.94;4978706;28;19914;-80
2022/07/16 12:40:29;;;;;;;;;;;;;;;23.89;34.84;99533.91;4978827;28;19960;-77
2022/07/16 12:42:55;;;;;;;;;;;;;;;23.92;35.05;99542.31;4978790;28;19918;-80
2022/07/16 12:45:20;;;;;;;;;;;;;;;23.92;34.84;99538.75;4979618;28;19918;-77
2022/07/16 12:47:45;;;;;;;;;;;;;;;23.94;34.82;99539.25;4978749;28;20419;-79
2022/07/16 12:50:10;;;;;;;;;;;;;;;23.93;34.68;99546.63;4978952;28;19918;-79
2022/07/16 12:52:35;;;;;;;;;;;;;;;23.94;34.74;99547.44;4979046;28;20423;-79